createdAt,value
2019-03-28T00:00:48.850Z,1025.36
2019-03-28T00:01:48.880Z,1025.36
2019-03-28T00:02:48.911Z,1025.38
2019-03-28T00:03:48.941Z,1025.40
2019-03-28T00:04:48.971Z,1025.38
2019-03-28T00:05:49.006Z,1025.36
2019-03-28T00:06:49.034Z,1025.37
2019-03-28T00:07:49.062Z,1025.36
2019-03-28T00:08:49.096Z,1025.36
2019-03-28T00:09:49.126Z,1025.35
2019-03-28T00:10:49.156Z,1025.37
2019-03-28T00:11:49.324Z,1025.31
2019-03-28T00:12:49.218Z,1025.35
2019-03-28T00:13:49.253Z,1025.35
2019-03-28T00:14:49.284Z,1025.33
2019-03-28T00:15:49.308Z,1025.33
2019-03-28T00:16:49.356Z,1025.34
2019-03-28T00:17:49.376Z,1025.31
2019-03-28T00:18:49.401Z,1025.34
2019-03-28T00:19:49.430Z,1025.32
2019-03-28T00:20:49.462Z,1025.28
2019-03-28T00:21:49.495Z,1025.28
2019-03-28T00:22:49.524Z,1025.28
2019-03-28T00:23:49.554Z,1025.29
2019-03-28T00:24:49.585Z,1025.27
2019-03-28T00:25:49.617Z,1025.25
2019-03-28T00:26:49.645Z,1025.27
2019-03-28T00:27:49.682Z,1025.27
2019-03-28T00:28:49.795Z,1025.30
2019-03-28T00:29:49.739Z,1025.30
2019-03-28T00:30:49.771Z,1025.27
2019-03-28T00:31:49.803Z,1025.30
2019-03-28T00:32:49.840Z,1025.32
2019-03-28T00:33:49.861Z,1025.28
2019-03-28T00:34:49.892Z,1025.28
2019-03-28T00:35:49.924Z,1025.29
2019-03-28T00:36:49.952Z,1025.30
2019-03-28T00:37:49.988Z,1025.26
2019-03-28T00:38:50.192Z,1025.28
2019-03-28T00:39:50.044Z,1025.29
2019-03-28T00:40:50.075Z,1025.33
2019-03-28T00:41:50.110Z,1025.29
2019-03-28T00:42:50.138Z,1025.27
2019-03-28T00:43:50.168Z,1025.26
2019-03-28T00:44:50.200Z,1025.26
2019-03-28T00:45:50.242Z,1025.27
2019-03-28T00:46:50.262Z,1025.30
2019-03-28T00:47:50.291Z,1025.29
2019-03-28T00:48:50.319Z,1025.28
2019-03-28T00:49:50.354Z,1025.26
2019-03-28T00:50:50.383Z,1025.25
2019-03-28T00:51:50.470Z,1025.28
2019-03-28T00:52:50.445Z,1025.31
2019-03-28T00:53:50.476Z,1025.27
2019-03-28T00:54:51.028Z,1025.30
2019-03-28T00:55:50.537Z,1025.25
2019-03-28T00:56:50.575Z,1025.29
2019-03-28T00:57:50.600Z,1025.27
2019-03-28T00:58:50.629Z,1025.26
2019-03-28T00:59:50.659Z,1025.29
2019-03-28T01:00:50.691Z,1025.24
2019-03-28T01:01:50.722Z,1025.30
2019-03-28T01:02:50.777Z,1025.30
2019-03-28T01:03:50.783Z,1025.31
2019-03-28T01:04:50.817Z,1025.30
2019-03-28T01:05:50.843Z,1025.31
2019-03-28T01:06:50.875Z,1025.29
2019-03-28T01:07:50.903Z,1025.34
2019-03-28T01:08:50.935Z,1025.31
2019-03-28T01:09:50.966Z,1025.26
2019-03-28T01:10:51.008Z,1025.30
2019-03-28T01:11:51.026Z,1025.31
2019-03-28T01:12:51.057Z,1025.33
2019-03-28T01:13:51.089Z,1025.31
2019-03-28T01:14:51.120Z,1025.31
2019-03-28T01:15:51.149Z,1025.33
2019-03-28T01:16:51.212Z,1025.30
2019-03-28T01:17:51.210Z,1025.30
2019-03-28T01:18:51.241Z,1025.31
2019-03-28T01:19:51.273Z,1025.33
2019-03-28T01:20:51.419Z,1025.32
2019-03-28T01:21:51.339Z,1025.33
2019-03-28T01:22:51.365Z,1025.33
2019-03-28T01:23:51.399Z,1025.36
2019-03-28T01:24:51.426Z,1025.35
2019-03-28T01:25:51.457Z,1025.36
2019-03-28T01:26:57.112Z,1025.32
2019-03-28T01:27:51.517Z,1025.32
2019-03-28T01:28:51.548Z,1025.30
2019-03-28T01:29:51.579Z,1025.34
2019-03-28T01:30:51.610Z,1025.32
2019-03-28T01:31:51.639Z,1025.31
2019-03-28T01:32:51.672Z,1025.31
2019-03-28T01:33:51.704Z,1025.30
2019-03-28T01:34:51.739Z,1025.36
2019-03-28T01:35:51.764Z,1025.33
2019-03-28T01:36:51.795Z,1025.32
2019-03-28T01:37:51.831Z,1025.32
2019-03-28T01:38:51.857Z,1025.30
2019-03-28T01:39:51.886Z,1025.31
2019-03-28T01:40:51.917Z,1025.32
2019-03-28T01:41:51.948Z,1025.33
2019-03-28T01:42:51.979Z,1025.30
2019-03-28T01:43:52.337Z,1025.34
2019-03-28T01:44:52.040Z,1025.34
2019-03-28T01:45:52.070Z,1025.34
2019-03-28T01:46:52.103Z,1025.37
2019-03-28T01:47:52.132Z,1025.36
2019-03-28T01:48:52.164Z,1025.38
2019-03-28T01:49:52.194Z,1025.35
2019-03-28T01:50:52.224Z,1025.34
2019-03-28T01:51:52.253Z,1025.37
2019-03-28T01:52:52.291Z,1025.36
2019-03-28T01:53:52.316Z,1025.36
2019-03-28T01:54:52.347Z,1025.38
2019-03-28T01:55:52.378Z,1025.35
2019-03-28T01:56:52.409Z,1025.39
2019-03-28T01:57:52.439Z,1025.33
2019-03-28T01:58:52.472Z,1025.35
2019-03-28T01:59:52.502Z,1025.37
2019-03-28T02:00:52.530Z,1025.39
2019-03-28T02:01:52.563Z,1025.36
2019-03-28T02:02:52.593Z,1025.33
2019-03-28T02:03:52.628Z,1025.37
2019-03-28T02:04:52.657Z,1025.36
2019-03-28T02:05:52.685Z,1025.38
2019-03-28T02:06:52.716Z,1025.36
2019-03-28T02:07:52.748Z,1025.38
2019-03-28T02:08:52.779Z,1025.39
2019-03-28T02:09:52.809Z,1025.42
2019-03-28T02:10:52.841Z,1025.38
2019-03-28T02:11:52.885Z,1025.40
2019-03-28T02:12:52.900Z,1025.40
2019-03-28T02:13:52.932Z,1025.39
2019-03-28T02:14:52.963Z,1025.37
2019-03-28T02:15:52.994Z,1025.37
2019-03-28T02:16:53.025Z,1025.38
2019-03-28T02:17:53.055Z,1025.37
2019-03-28T02:18:53.086Z,1025.39
2019-03-28T02:19:53.116Z,1025.43
2019-03-28T02:20:53.148Z,1025.37
2019-03-28T02:21:53.279Z,1025.41
2019-03-28T02:22:53.214Z,1025.40
2019-03-28T02:23:53.243Z,1025.43
2019-03-28T02:24:53.271Z,1025.41
2019-03-28T02:25:53.303Z,1025.43
2019-03-28T02:26:53.332Z,1025.40
2019-03-28T02:27:53.364Z,1025.45
2019-03-28T02:28:53.394Z,1025.38
2019-03-28T02:29:53.461Z,1025.43
2019-03-28T02:30:53.457Z,1025.42
2019-03-28T02:31:53.493Z,1025.45
2019-03-28T02:32:53.521Z,1025.44
2019-03-28T02:33:53.550Z,1025.42
2019-03-28T02:34:53.582Z,1025.44
2019-03-28T02:35:53.611Z,1025.41
2019-03-28T02:36:53.657Z,1025.43
2019-03-28T02:37:53.672Z,1025.44
2019-03-28T02:38:53.703Z,1025.42
2019-03-28T02:39:53.738Z,1025.40
2019-03-28T02:40:53.764Z,1025.40
2019-03-28T02:41:53.815Z,1025.41
2019-03-28T02:42:53.828Z,1025.42
2019-03-28T02:43:53.860Z,1025.46
2019-03-28T02:44:53.889Z,1025.44
2019-03-28T02:45:53.994Z,1025.44
2019-03-28T02:46:53.952Z,1025.43
2019-03-28T02:47:53.995Z,1025.44
2019-03-28T02:48:54.096Z,1025.44
2019-03-28T02:49:54.044Z,1025.50
2019-03-28T02:50:54.074Z,1025.51
2019-03-28T02:51:54.105Z,1025.51
2019-03-28T02:52:54.135Z,1025.51
2019-03-28T02:53:54.167Z,1025.51
2019-03-28T02:54:54.197Z,1025.52
2019-03-28T02:55:54.227Z,1025.52
2019-03-28T02:56:54.257Z,1025.54
2019-03-28T02:57:54.289Z,1025.57
2019-03-28T02:58:54.320Z,1025.50
2019-03-28T02:59:54.822Z,1025.55
2019-03-28T03:00:54.388Z,1025.52
2019-03-28T03:01:54.414Z,1025.57
2019-03-28T03:02:54.446Z,1025.55
2019-03-28T03:03:54.476Z,1025.55
2019-03-28T03:04:54.646Z,1025.51
2019-03-28T03:05:54.534Z,1025.55
2019-03-28T03:06:54.570Z,1025.57
2019-03-28T03:07:54.597Z,1025.51
2019-03-28T03:08:54.634Z,1025.54
2019-03-28T03:09:54.660Z,1025.54
2019-03-28T03:10:54.692Z,1025.53
2019-03-28T03:11:54.720Z,1025.59
2019-03-28T03:12:54.758Z,1025.53
2019-03-28T03:13:54.786Z,1025.53
2019-03-28T03:14:54.815Z,1025.51
2019-03-28T03:15:54.844Z,1025.51
2019-03-28T03:16:54.877Z,1025.50
2019-03-28T03:17:54.911Z,1025.45
2019-03-28T03:18:54.938Z,1025.48
2019-03-28T03:19:54.975Z,1025.50
2019-03-28T03:20:54.999Z,1025.48
2019-03-28T03:21:55.031Z,1025.51
2019-03-28T03:22:55.061Z,1025.55
2019-03-28T03:23:55.092Z,1025.52
2019-03-28T03:24:55.125Z,1025.52
2019-03-28T03:25:55.153Z,1025.52
2019-03-28T03:26:55.187Z,1025.53
2019-03-28T03:27:58.446Z,1025.55
2019-03-28T03:28:55.249Z,1025.55
2019-03-28T03:29:55.280Z,1025.52
2019-03-28T03:30:55.308Z,1025.53
2019-03-28T03:31:55.351Z,1025.51
2019-03-28T03:32:55.376Z,1025.49
2019-03-28T03:33:55.402Z,1025.51
2019-03-28T03:34:55.444Z,1025.51
2019-03-28T03:35:55.463Z,1025.52
2019-03-28T03:36:55.503Z,1025.51
2019-03-28T03:37:56.024Z,1025.51
2019-03-28T03:38:55.557Z,1025.53
2019-03-28T03:39:55.583Z,1025.55
2019-03-28T03:40:55.618Z,1025.52
2019-03-28T03:41:55.650Z,1025.57
2019-03-28T03:42:56.766Z,1025.57
2019-03-28T03:43:55.708Z,1025.53
2019-03-28T03:44:55.742Z,1025.59
2019-03-28T03:45:55.776Z,1025.60
2019-03-28T03:46:55.802Z,1025.59
2019-03-28T03:47:55.832Z,1025.59
2019-03-28T03:48:55.866Z,1025.57
2019-03-28T03:49:56.491Z,1025.63
2019-03-28T03:50:55.926Z,1025.64
2019-03-28T03:51:55.961Z,1025.62
2019-03-28T03:52:55.987Z,1025.64
2019-03-28T03:53:56.019Z,1025.61
2019-03-28T03:54:56.050Z,1025.63
2019-03-28T03:55:56.081Z,1025.66
2019-03-28T03:56:56.112Z,1025.66
2019-03-28T03:58:13.294Z,1025.63
2019-03-28T03:58:56.172Z,1025.65
2019-03-28T03:59:56.203Z,1025.61
2019-03-28T04:00:56.238Z,1025.64
2019-03-28T04:01:56.266Z,1025.60
2019-03-28T04:02:56.297Z,1025.64
2019-03-28T04:03:56.327Z,1025.62
2019-03-28T04:04:57.000Z,1025.65
2019-03-28T04:05:56.411Z,1025.61
2019-03-28T04:06:56.420Z,1025.61
2019-03-28T04:07:56.453Z,1025.62
2019-03-28T04:08:56.482Z,1025.64
2019-03-28T04:09:56.513Z,1025.64
2019-03-28T04:10:56.547Z,1025.62
2019-03-28T04:11:56.575Z,1025.63
2019-03-28T04:12:56.606Z,1025.54
2019-03-28T04:13:56.639Z,1025.60
2019-03-28T04:14:56.671Z,1025.63
2019-03-28T04:15:56.698Z,1025.61
2019-03-28T04:16:56.727Z,1025.65
2019-03-28T04:17:56.760Z,1025.66
2019-03-28T04:18:56.791Z,1025.66
2019-03-28T04:19:56.831Z,1025.67
2019-03-28T04:20:56.854Z,1025.69
2019-03-28T04:21:56.883Z,1025.70
2019-03-28T04:22:56.914Z,1025.70
2019-03-28T04:23:56.948Z,1025.72
2019-03-28T04:24:56.977Z,1025.72
2019-03-28T04:25:57.006Z,1025.70
2019-03-28T04:26:57.038Z,1025.75
2019-03-28T04:27:57.068Z,1025.73
2019-03-28T04:28:57.100Z,1025.73
2019-03-28T04:29:57.129Z,1025.79
2019-03-28T04:30:57.160Z,1025.77
2019-03-28T04:31:57.198Z,1025.77
2019-03-28T04:32:57.223Z,1025.79
2019-03-28T04:33:57.253Z,1025.79
2019-03-28T04:34:57.286Z,1025.81
2019-03-28T04:35:57.314Z,1025.81
2019-03-28T04:36:57.348Z,1025.81
2019-03-28T04:37:57.384Z,1025.82
2019-03-28T04:38:57.408Z,1025.80
2019-03-28T04:39:57.438Z,1025.80
2019-03-28T04:40:57.469Z,1025.82
2019-03-28T04:41:57.504Z,1025.82
2019-03-28T04:42:57.532Z,1025.85
2019-03-28T04:43:57.567Z,1025.83
2019-03-28T04:44:57.593Z,1025.88
2019-03-28T04:45:57.625Z,1025.87
2019-03-28T04:46:57.657Z,1025.91
2019-03-28T04:47:57.685Z,1025.93
2019-03-28T04:48:57.717Z,1025.93
2019-03-28T04:49:57.750Z,1025.97
2019-03-28T04:50:57.778Z,1025.97
2019-03-28T04:51:57.809Z,1025.94
2019-03-28T04:52:57.840Z,1026.00
2019-03-28T04:53:57.872Z,1025.98
2019-03-28T04:54:57.903Z,1026.00
2019-03-28T04:55:57.933Z,1025.94
2019-03-28T04:56:57.963Z,1025.95
2019-03-28T04:57:57.995Z,1025.95
2019-03-28T04:58:58.029Z,1025.96
2019-03-28T04:59:58.056Z,1025.96
2019-03-28T05:00:58.089Z,1026.00
2019-03-28T05:02:03.015Z,1025.97
2019-03-28T05:02:58.151Z,1026.00
2019-03-28T05:03:58.179Z,1026.01
2019-03-28T05:04:58.210Z,1026.03
2019-03-28T05:05:58.482Z,1026.00
2019-03-28T05:06:58.273Z,1026.04
2019-03-28T05:07:58.303Z,1026.06
2019-03-28T05:08:58.338Z,1026.04
2019-03-28T05:09:58.368Z,1026.07
2019-03-28T05:10:58.399Z,1026.04
2019-03-28T05:11:58.460Z,1026.05
2019-03-28T05:12:58.458Z,1026.04
2019-03-28T05:13:58.489Z,1026.04
2019-03-28T05:14:58.522Z,1026.03
2019-03-28T05:15:58.552Z,1026.10
2019-03-28T05:16:58.582Z,1026.11
2019-03-28T05:17:58.612Z,1026.09
2019-03-28T05:18:58.644Z,1026.10
2019-03-28T05:19:58.677Z,1026.13
2019-03-28T05:20:58.708Z,1026.13
2019-03-28T05:21:58.737Z,1026.16
2019-03-28T05:22:58.769Z,1026.11
2019-03-28T05:23:58.799Z,1026.16
2019-03-28T05:24:58.893Z,1026.14
2019-03-28T05:25:58.866Z,1026.16
2019-03-28T05:26:58.890Z,1026.20
2019-03-28T05:27:59.379Z,1026.17
2019-03-28T05:28:59.489Z,1026.17
2019-03-28T05:29:58.984Z,1026.20
2019-03-28T05:30:59.021Z,1026.19
2019-03-28T05:31:59.045Z,1026.20
2019-03-28T05:32:59.076Z,1026.20
2019-03-28T05:33:59.107Z,1026.19
2019-03-28T05:34:59.137Z,1026.19
2019-03-28T05:35:59.170Z,1026.20
2019-03-28T05:36:59.200Z,1026.18
2019-03-28T05:37:59.235Z,1026.18
2019-03-28T05:38:59.262Z,1026.18
2019-03-28T05:39:59.290Z,1026.18
2019-03-28T05:40:59.395Z,1026.22
2019-03-28T05:41:59.357Z,1026.25
2019-03-28T05:42:59.386Z,1026.29
2019-03-28T05:43:59.415Z,1026.27
2019-03-28T05:44:59.447Z,1026.27
2019-03-28T05:45:59.490Z,1026.33
2019-03-28T05:46:59.509Z,1026.31
2019-03-28T05:48:00.443Z,1026.33
2019-03-28T05:48:59.571Z,1026.36
2019-03-28T05:49:59.603Z,1026.33
2019-03-28T05:50:59.634Z,1026.35
2019-03-28T05:51:59.662Z,1026.36
2019-03-28T05:52:59.694Z,1026.35
2019-03-28T05:53:59.726Z,1026.35
2019-03-28T05:54:59.756Z,1026.36
2019-03-28T05:55:59.788Z,1026.35
2019-03-28T05:56:59.817Z,1026.37
2019-03-28T05:57:59.850Z,1026.36
2019-03-28T05:59:10.310Z,1026.35
2019-03-28T05:59:59.910Z,1026.38
2019-03-28T06:00:59.944Z,1026.41
2019-03-28T06:01:59.992Z,1026.41
2019-03-28T06:03:00.051Z,1026.43
2019-03-28T06:04:00.071Z,1026.43
2019-03-28T06:05:00.529Z,1026.43
2019-03-28T06:06:00.139Z,1026.48
2019-03-28T06:07:00.167Z,1026.49
2019-03-28T06:08:00.189Z,1026.52
2019-03-28T06:09:00.189Z,1026.53
2019-03-28T06:10:00.416Z,1026.52
2019-03-28T06:11:00.253Z,1026.55
2019-03-28T06:12:00.280Z,1026.55
2019-03-28T06:13:00.313Z,1026.64
2019-03-28T06:14:00.404Z,1026.59
2019-03-28T06:15:00.417Z,1026.61
2019-03-28T06:16:00.406Z,1026.63
2019-03-28T06:17:00.436Z,1026.64
2019-03-28T06:18:00.468Z,1026.63
2019-03-28T06:19:00.501Z,1026.67
2019-03-28T06:20:00.529Z,1026.66
2019-03-28T06:21:00.560Z,1026.68
2019-03-28T06:22:00.590Z,1026.67
2019-03-28T06:23:00.622Z,1026.71
2019-03-28T06:24:00.654Z,1026.71
2019-03-28T06:25:00.685Z,1026.76
2019-03-28T06:26:00.717Z,1026.81
2019-03-28T06:27:00.747Z,1026.83
2019-03-28T06:28:00.778Z,1026.81
2019-03-28T06:29:00.807Z,1026.81
2019-03-28T06:30:02.209Z,1026.81
2019-03-28T06:31:00.872Z,1026.83
2019-03-28T06:32:00.902Z,1026.86
2019-03-28T06:33:00.931Z,1026.87
2019-03-28T06:34:00.962Z,1026.86
2019-03-28T06:35:00.994Z,1026.94
2019-03-28T06:36:02.303Z,1026.86
2019-03-28T06:37:01.055Z,1026.87
2019-03-28T06:38:01.089Z,1026.91
2019-03-28T06:39:01.120Z,1026.90
2019-03-28T06:40:01.150Z,1026.90
2019-03-28T06:41:01.178Z,1026.92
2019-03-28T06:42:01.215Z,1026.88
2019-03-28T06:43:01.270Z,1026.96
2019-03-28T06:44:01.275Z,1026.95
2019-03-28T06:45:03.645Z,1026.95
2019-03-28T06:46:01.336Z,1026.95
2019-03-28T06:47:01.368Z,1026.95
2019-03-28T06:48:01.400Z,1026.95
2019-03-28T06:49:01.432Z,1026.97
2019-03-28T06:50:01.459Z,1026.97
2019-03-28T06:51:01.491Z,1026.99
2019-03-28T06:52:01.605Z,1026.99
2019-03-28T06:53:01.553Z,1027.01
2019-03-28T06:54:01.581Z,1027.04
2019-03-28T06:55:01.626Z,1027.02
2019-03-28T06:56:01.644Z,1027.03
2019-03-28T06:57:01.676Z,1027.07
2019-03-28T06:58:01.706Z,1027.06
2019-03-28T06:59:01.753Z,1027.08
2019-03-28T07:00:01.779Z,1027.12
2019-03-28T07:01:01.803Z,1027.07
2019-03-28T07:02:01.833Z,1027.03
2019-03-28T07:03:01.863Z,1027.02
2019-03-28T07:04:01.894Z,1027.05
2019-03-28T07:05:01.925Z,1027.04
2019-03-28T07:06:01.960Z,1027.00
2019-03-28T07:07:01.986Z,1027.07
2019-03-28T07:08:02.017Z,1026.96
2019-03-28T07:09:02.049Z,1027.08
2019-03-28T07:10:02.571Z,1027.03
2019-03-28T07:11:02.578Z,1027.04
2019-03-28T07:12:02.147Z,1027.06
2019-03-28T07:13:02.182Z,1027.04
2019-03-28T07:14:02.455Z,1027.07
2019-03-28T07:15:02.238Z,1027.05
2019-03-28T07:16:02.268Z,1027.05
2019-03-28T07:17:02.297Z,1027.07
2019-03-28T07:18:02.332Z,1027.05
2019-03-28T07:19:02.362Z,1027.04
2019-03-28T07:20:02.391Z,1027.05
2019-03-28T07:21:02.425Z,1027.04
2019-03-28T07:22:02.456Z,1027.09
2019-03-28T07:23:02.487Z,1027.09
2019-03-28T07:24:02.517Z,1027.13
2019-03-28T07:25:02.548Z,1027.16
2019-03-28T07:26:02.583Z,1027.16
2019-03-28T07:27:02.612Z,1027.18
2019-03-28T07:28:02.642Z,1027.19
2019-03-28T07:29:02.673Z,1027.16
2019-03-28T07:30:02.704Z,1027.18
2019-03-28T07:31:02.737Z,1027.14
2019-03-28T07:32:02.768Z,1027.19
2019-03-28T07:33:02.799Z,1027.15
2019-03-28T07:34:02.829Z,1027.18
2019-03-28T07:35:02.863Z,1027.17
2019-03-28T07:36:02.892Z,1027.18
2019-03-28T07:37:02.923Z,1027.20
2019-03-28T07:38:02.956Z,1027.20
2019-03-28T07:39:02.988Z,1027.23
2019-03-28T07:40:03.019Z,1027.25
2019-03-28T07:41:03.047Z,1027.25
2019-03-28T07:42:03.082Z,1027.22
2019-03-28T07:43:03.115Z,1027.28
2019-03-28T07:44:03.143Z,1027.30
2019-03-28T07:45:03.176Z,1027.28
2019-03-28T07:46:03.205Z,1027.37
2019-03-28T07:47:03.340Z,1027.38
2019-03-28T07:48:03.266Z,1027.38
2019-03-28T07:49:03.301Z,1027.37
2019-03-28T07:50:03.331Z,1027.44
2019-03-28T07:51:03.363Z,1027.39
2019-03-28T07:52:03.393Z,1027.36
2019-03-28T07:53:03.425Z,1027.39
2019-03-28T07:54:03.458Z,1027.36
2019-03-28T07:55:03.516Z,1027.38
2019-03-28T07:56:03.525Z,1027.39
2019-03-28T07:57:03.554Z,1027.44
2019-03-28T07:58:03.581Z,1027.39
2019-03-28T07:59:03.613Z,1027.37
2019-03-28T08:00:05.191Z,1027.43
2019-03-28T08:01:03.678Z,1027.40
2019-03-28T08:02:03.708Z,1027.43
2019-03-28T08:03:03.739Z,1027.44
2019-03-28T08:04:03.772Z,1027.50
2019-03-28T08:05:03.802Z,1027.50
2019-03-28T08:06:03.832Z,1027.48
2019-03-28T08:07:03.867Z,1027.47
2019-03-28T08:08:03.896Z,1027.46
2019-03-28T08:09:03.994Z,1027.47
2019-03-28T08:10:03.957Z,1027.49
2019-03-28T08:11:03.991Z,1027.44
2019-03-28T08:12:04.722Z,1027.49
2019-03-28T08:13:04.060Z,1027.48
2019-03-28T08:14:04.087Z,1027.46
2019-03-28T08:15:04.117Z,1027.49
2019-03-28T08:16:04.149Z,1027.46
2019-03-28T08:17:04.183Z,1027.49
2019-03-28T08:18:04.217Z,1027.52
2019-03-28T08:19:07.712Z,1027.48
2019-03-28T08:20:04.272Z,1027.49
2019-03-28T08:21:04.310Z,1027.49
2019-03-28T08:22:04.339Z,1027.48
2019-03-28T08:23:04.371Z,1027.56
2019-03-28T08:24:04.403Z,1027.50
2019-03-28T08:25:07.408Z,1027.50
2019-03-28T08:26:04.519Z,1027.53
2019-03-28T08:27:04.496Z,1027.51
2019-03-28T08:28:04.542Z,1027.53
2019-03-28T08:29:04.559Z,1027.50
2019-03-28T08:30:17.548Z,1027.54
2019-03-28T08:31:04.627Z,1027.55
2019-03-28T08:32:04.655Z,1027.60
2019-03-28T08:33:04.687Z,1027.62
2019-03-28T08:34:04.718Z,1027.63
2019-03-28T08:35:04.749Z,1027.64
2019-03-28T08:36:04.782Z,1027.66
2019-03-28T08:37:04.814Z,1027.68
2019-03-28T08:38:04.844Z,1027.65
2019-03-28T08:39:04.886Z,1027.67
2019-03-28T08:40:04.908Z,1027.65
2019-03-28T08:41:07.130Z,1027.64
2019-03-28T08:42:04.971Z,1027.66
2019-03-28T08:43:05.007Z,1027.68
2019-03-28T08:44:07.311Z,1027.71
2019-03-28T08:45:05.069Z,1027.68
2019-03-28T08:46:08.521Z,1027.66
2019-03-28T08:47:06.295Z,1027.68
2019-03-28T08:48:05.164Z,1027.67
2019-03-28T08:49:05.194Z,1027.69
2019-03-28T08:50:05.231Z,1027.72
2019-03-28T08:51:05.258Z,1027.72
2019-03-28T08:52:05.294Z,1027.74
2019-03-28T08:53:05.322Z,1027.81
2019-03-28T08:54:05.958Z,1027.78
2019-03-28T08:55:05.393Z,1027.79
2019-03-28T08:56:05.418Z,1027.83
2019-03-28T08:57:05.449Z,1027.78
2019-03-28T08:58:05.479Z,1027.78
2019-03-28T08:59:05.537Z,1027.79
2019-03-28T09:00:05.544Z,1027.78
2019-03-28T09:01:05.907Z,1027.78
2019-03-28T09:02:05.647Z,1027.78
2019-03-28T09:03:05.641Z,1027.81
2019-03-28T09:04:05.677Z,1027.81
2019-03-28T09:05:05.703Z,1027.86
2019-03-28T09:06:05.762Z,1027.86
2019-03-28T09:07:05.775Z,1027.84
2019-03-28T09:08:05.801Z,1027.87
2019-03-28T09:09:05.831Z,1027.86
2019-03-28T09:10:05.863Z,1027.84
2019-03-28T09:11:05.895Z,1027.87
2019-03-28T09:12:05.929Z,1027.86
2019-03-28T09:13:05.960Z,1027.86
2019-03-28T09:14:05.996Z,1027.83
2019-03-28T09:15:06.023Z,1027.82
2019-03-28T09:16:06.076Z,1027.83
2019-03-28T09:17:06.087Z,1027.87
2019-03-28T09:18:06.120Z,1027.86
2019-03-28T09:19:06.150Z,1027.84
2019-03-28T09:20:06.200Z,1027.88
2019-03-28T09:21:06.214Z,1027.91
2019-03-28T09:22:06.246Z,1027.89
2019-03-28T09:23:06.277Z,1027.90
2019-03-28T09:24:06.308Z,1027.93
2019-03-28T09:25:06.341Z,1027.90
2019-03-28T09:26:06.392Z,1027.91
2019-03-28T09:27:06.406Z,1027.85
2019-03-28T09:28:06.438Z,1027.82
2019-03-28T09:29:06.472Z,1027.80
2019-03-28T09:30:06.502Z,1027.83
2019-03-28T09:31:19.261Z,1027.80
2019-03-28T09:32:06.564Z,1027.80
2019-03-28T09:33:06.598Z,1027.82
2019-03-28T09:34:06.631Z,1027.81
2019-03-28T09:35:06.662Z,1027.83
2019-03-28T09:36:06.692Z,1027.84
2019-03-28T09:37:06.733Z,1027.82
2019-03-28T09:38:06.766Z,1027.85
2019-03-28T09:39:06.787Z,1027.83
2019-03-28T09:40:06.821Z,1027.86
2019-03-28T09:41:06.854Z,1027.83
2019-03-28T09:42:06.933Z,1027.84
2019-03-28T09:43:06.921Z,1027.81
2019-03-28T09:44:06.948Z,1027.81
2019-03-28T09:45:06.982Z,1027.81
2019-03-28T09:46:07.011Z,1027.78
2019-03-28T09:47:07.046Z,1027.79
2019-03-28T09:48:07.081Z,1027.74
2019-03-28T09:49:07.112Z,1027.74
2019-03-28T09:50:07.140Z,1027.74
2019-03-28T09:51:07.171Z,1027.70
2019-03-28T09:52:07.205Z,1027.73
2019-03-28T09:53:07.234Z,1027.70
2019-03-28T09:54:07.268Z,1027.74
2019-03-28T09:55:07.299Z,1027.71
2019-03-28T09:56:07.503Z,1027.71
2019-03-28T09:57:07.361Z,1027.71
2019-03-28T09:58:07.408Z,1027.72
2019-03-28T09:59:07.426Z,1027.70
2019-03-28T10:00:07.456Z,1027.71
2019-03-28T10:01:07.490Z,1027.70
2019-03-28T10:02:07.578Z,1027.72
2019-03-28T10:03:07.554Z,1027.70
2019-03-28T10:04:07.586Z,1027.72
2019-03-28T10:05:07.628Z,1027.74
2019-03-28T10:06:07.650Z,1027.74
2019-03-28T10:07:07.682Z,1027.78
2019-03-28T10:08:07.719Z,1027.77
2019-03-28T10:09:07.743Z,1027.79
2019-03-28T10:10:09.329Z,1027.78
2019-03-28T10:11:07.811Z,1027.81
2019-03-28T10:12:07.840Z,1027.80
2019-03-28T10:13:07.872Z,1027.83
2019-03-28T10:14:07.930Z,1027.83
2019-03-28T10:15:07.937Z,1027.86
2019-03-28T10:16:07.968Z,1027.85
2019-03-28T10:17:07.999Z,1027.85
2019-03-28T10:18:08.032Z,1027.84
2019-03-28T10:19:08.093Z,1027.86
2019-03-28T10:20:08.998Z,1027.84
2019-03-28T10:21:08.132Z,1027.88
2019-03-28T10:22:08.237Z,1027.85
2019-03-28T10:23:08.195Z,1027.85
2019-03-28T10:24:08.224Z,1027.89
2019-03-28T10:25:08.255Z,1027.84
2019-03-28T10:26:08.288Z,1027.85
2019-03-28T10:27:08.320Z,1027.87
2019-03-28T10:28:08.355Z,1027.88
2019-03-28T10:29:08.385Z,1027.87
2019-03-28T10:30:08.417Z,1027.86
2019-03-28T10:31:16.227Z,1027.86
2019-03-28T10:32:08.485Z,1027.90
2019-03-28T10:33:08.509Z,1027.91
2019-03-28T10:34:08.543Z,1027.85
2019-03-28T10:35:08.576Z,1027.84
2019-03-28T10:36:08.605Z,1027.92
2019-03-28T10:37:08.638Z,1027.88
2019-03-28T10:38:08.672Z,1027.86
2019-03-28T10:39:08.702Z,1027.88
2019-03-28T10:40:08.734Z,1027.89
2019-03-28T10:41:08.767Z,1027.91
2019-03-28T10:42:08.798Z,1027.91
2019-03-28T10:43:08.833Z,1027.91
2019-03-28T10:44:08.861Z,1027.94
2019-03-28T10:45:08.901Z,1027.87
2019-03-28T10:46:08.925Z,1027.87
2019-03-28T10:47:08.959Z,1027.87
2019-03-28T10:48:08.992Z,1027.91
2019-03-28T10:49:09.059Z,1027.88
2019-03-28T10:50:09.076Z,1027.92
2019-03-28T10:51:09.086Z,1027.88
2019-03-28T10:52:11.825Z,1027.94
2019-03-28T10:53:09.149Z,1027.87
2019-03-28T10:54:19.450Z,1027.90
2019-03-28T10:55:09.215Z,1027.84
2019-03-28T10:56:20.950Z,1027.86
2019-03-28T10:57:15.479Z,1027.86
2019-03-28T10:58:18.221Z,1027.87
2019-03-28T10:59:22.345Z,1027.86
2019-03-28T11:00:23.168Z,1027.86
2019-03-28T11:01:09.404Z,1027.85
2019-03-28T11:02:09.440Z,1027.87
2019-03-28T11:03:09.469Z,1027.90
2019-03-28T11:04:09.501Z,1027.89
2019-03-28T11:05:09.534Z,1027.88
2019-03-28T11:06:09.568Z,1027.91
2019-03-28T11:07:09.599Z,1027.92
2019-03-28T11:08:09.631Z,1027.88
2019-03-28T11:09:09.664Z,1027.93
2019-03-28T11:10:09.695Z,1027.86
2019-03-28T11:11:09.783Z,1027.96
2019-03-28T11:12:09.757Z,1027.95
2019-03-28T11:13:09.988Z,1027.96
2019-03-28T11:14:09.822Z,1028.01
2019-03-28T11:15:09.855Z,1028.03
2019-03-28T11:16:09.888Z,1028.03
2019-03-28T11:17:09.919Z,1028.04
2019-03-28T11:18:09.951Z,1028.07
2019-03-28T11:19:09.985Z,1028.10
2019-03-28T11:20:10.063Z,1028.11
2019-03-28T11:21:10.047Z,1028.11
2019-03-28T11:22:10.079Z,1028.11
2019-03-28T11:23:10.113Z,1028.11
2019-03-28T11:24:10.142Z,1028.14
2019-03-28T11:25:10.179Z,1028.13
2019-03-28T11:26:10.210Z,1028.14
2019-03-28T11:27:10.241Z,1028.12
2019-03-28T11:28:10.280Z,1028.14
2019-03-28T11:29:10.303Z,1028.15
2019-03-28T11:30:10.335Z,1028.15
2019-03-28T11:31:10.367Z,1028.16
2019-03-28T11:32:10.402Z,1028.21
2019-03-28T11:33:10.432Z,1028.22
2019-03-28T11:34:10.463Z,1028.22
2019-03-28T11:35:10.495Z,1028.24
2019-03-28T11:36:10.527Z,1028.25
2019-03-28T11:37:24.983Z,1028.26
2019-03-28T11:38:10.592Z,1028.23
2019-03-28T11:39:10.624Z,1028.23
2019-03-28T11:40:10.655Z,1028.26
2019-03-28T11:41:10.689Z,1028.29
2019-03-28T11:42:10.745Z,1028.27
2019-03-28T11:43:10.754Z,1028.29
2019-03-28T11:44:11.537Z,1028.31
2019-03-28T11:45:10.817Z,1028.27
2019-03-28T11:46:10.849Z,1028.28
2019-03-28T11:47:10.881Z,1028.32
2019-03-28T11:48:10.913Z,1028.34
2019-03-28T11:49:10.945Z,1028.29
2019-03-28T11:50:10.977Z,1028.33
2019-03-28T11:51:11.011Z,1028.36
2019-03-28T11:52:11.045Z,1028.35
2019-03-28T11:53:11.076Z,1028.34
2019-03-28T11:54:11.105Z,1028.34
2019-03-28T11:55:11.142Z,1028.37
2019-03-28T11:56:11.185Z,1028.39
2019-03-28T11:57:11.205Z,1028.39
2019-03-28T11:58:11.635Z,1028.40
2019-03-28T11:59:11.267Z,1028.39
2019-03-28T12:00:11.299Z,1028.40
2019-03-28T12:01:11.331Z,1028.39
2019-03-28T12:02:19.734Z,1028.39
2019-03-28T12:03:11.397Z,1028.37
2019-03-28T12:04:11.429Z,1028.37
2019-03-28T12:05:11.473Z,1028.38
2019-03-28T12:06:11.494Z,1028.40